Time;durP1;ratioP1;P1;durP2;ratioP2;P2;SDS_P1;SDS_P2;PMS_P1;PMS_P2;Temp;Humidity;BMP_temperature;BMP_pressure;BME280_temperature;BME280_humidity;BME280_pressure;Samples;Min_cycle;Max_cycle;Signal;HPM_P1;HPM_P2
2021/08/08 00:00:02;;;;;;;22.85;4.13;;;;;;;14.06;100.00;99857.06;5062133;28;20049;-73
2021/08/08 00:02:36;;;;;;;12.80;3.50;;;;;;;14.11;100.00;99852.72;5068659;28;20045;-76
2021/08/08 00:05:05;;;;;;;10.45;4.82;;;;;;;14.11;100.00;99863.44;5068509;28;20135;-72
2021/08/08 00:07:34;;;;;;;9.90;3.50;;;;;;;14.07;100.00;99869.44;5069864;28;20136;-71
2021/08/08 00:10:05;;;;;;;9.43;3.33;;;;;;;14.08;100.00;99863.88;5063977;28;20428;-72
2021/08/08 00:12:34;;;;;;;10.10;3.13;;;;;;;14.12;100.00;99870.47;5067441;28;20041;-72
2021/08/08 00:15:01;;;;;;;14.23;3.30;;;;;;;14.15;100.00;99863.88;5069729;28;20592;-72
2021/08/08 00:17:29;;;;;;;12.48;3.33;;;;;;;14.13;100.00;99876.66;5067925;28;20388;-73
2021/08/08 00:19:57;;;;;;;11.40;3.40;;;;;;;14.18;100.00;99870.69;5065562;28;20045;-71
2021/08/08 00:22:25;;;;;;;10.95;3.17;;;;;;;14.13;100.00;99871.28;5067745;28;20058;-72
2021/08/08 00:24:53;;;;;;;13.38;3.13;;;;;;;14.17;100.00;99871.72;5070338;28;20048;-70
2021/08/08 00:27:22;;;;;;;7.82;2.80;;;;;;;14.26;100.00;99878.47;5065937;28;20041;-71
2021/08/08 00:29:50;;;;;;;8.10;2.92;;;;;;;14.21;100.00;99868.38;5066352;28;20041;-71
2021/08/08 00:32:19;;;;;;;9.85;2.83;;;;;;;14.24;100.00;99865.28;5068514;28;20048;-71
2021/08/08 00:34:46;;;;;;;10.05;2.83;;;;;;;14.23;100.00;99863.66;5070757;28;20102;-71
2021/08/08 00:37:14;;;;;;;16.17;3.65;;;;;;;14.22;100.00;99870.03;5069828;28;20131;-71
2021/08/08 00:39:44;;;;;;;9.93;3.75;;;;;;;14.25;100.00;99869.63;5067355;28;20045;-71
2021/08/08 00:42:12;;;;;;;8.80;3.35;;;;;;;14.27;100.00;99872.94;5067879;28;20467;-71
2021/08/08 00:44:41;;;;;;;8.45;3.08;;;;;;;14.20;100.00;99874.78;5071049;28;20045;-71
2021/08/08 00:47:10;;;;;;;8.60;3.40;;;;;;;14.24;100.00;99877.88;5067851;28;20048;-71
2021/08/08 00:49:38;;;;;;;14.55;3.42;;;;;;;14.18;100.00;99884.09;5066739;28;20036;-72
2021/08/08 00:52:07;;;;;;;8.52;2.80;;;;;;;14.18;100.00;99887.59;5067490;28;20354;-72
2021/08/08 00:54:37;;;;;;;8.32;3.05;;;;;;;14.10;100.00;99885.97;5069736;28;20048;-70
2021/08/08 00:57:05;;;;;;;8.55;2.60;;;;;;;13.98;100.00;99890.31;5070163;28;20048;-70
2021/08/08 00:59:34;;;;;;;11.15;3.38;;;;;;;13.81;100.00;99889.06;5066837;28;20382;-71
2021/08/08 01:02:06;;;;;;;12.20;3.20;;;;;;;13.94;100.00;99894.44;5067598;28;20048;-71
2021/08/08 01:04:41;;;;;;;12.88;3.25;;;;;;;13.96;100.00;99900.41;5067610;28;20048;-71
2021/08/08 01:07:15;;;;;;;15.48;3.47;;;;;;;14.00;100.00;99893.59;5065185;28;20045;-71
2021/08/08 01:09:48;;;;;;;6.78;3.28;;;;;;;14.00;100.00;99900.84;5065695;28;20063;-71
2021/08/08 01:12:17;;;;;;;9.27;3.67;;;;;;;14.03;100.00;99903.09;5066381;28;20044;-71
2021/08/08 01:14:46;;;;;;;17.05;3.05;;;;;;;13.93;100.00;99903.53;5069076;28;20070;-71
2021/08/08 01:17:16;;;;;;;9.07;2.72;;;;;;;13.90;100.00;99910.13;5067196;28;20484;-71
2021/08/08 01:19:48;;;;;;;10.82;2.97;;;;;;;13.89;100.00;99913.88;5066628;28;20067;-72
2021/08/08 01:22:19;;;;;;;10.50;2.75;;;;;;;13.90;100.00;99909.31;5066807;28;20199;-71
2021/08/08 01:24:49;;;;;;;11.65;3.35;;;;;;;13.87;100.00;99920.47;5067207;28;20045;-71
2021/08/08 01:27:20;;;;;;;14.35;3.13;;;;;;;13.91;100.00;99927.06;5066222;28;20052;-71
2021/08/08 01:29:49;;;;;;;7.18;2.60;;;;;;;13.83;100.00;99924.59;5067449;28;20138;-71
2021/08/08 01:32:19;;;;;;;10.88;2.78;;;;;;;13.70;100.00;99928.91;5067340;28;20044;-71
2021/08/08 01:34:47;;;;;;;12.98;2.88;;;;;;;13.59;100.00;99929.53;5068764;28;20041;-71
2021/08/08 01:37:19;;;;;;;10.43;3.22;;;;;;;13.45;100.00;99931.34;5068767;28;20049;-71
2021/08/08 01:39:55;;;;;;;11.30;3.15;;;;;;;13.52;100.00;99934.88;5063972;28;20045;-72
2021/08/08 01:42:22;;;;;;;;;;;;;;;13.47;100.00;99941.88;5066890;28;20392;-71
2021/08/08 01:44:56;;;;;;;7.82;3.38;;;;;;;13.54;100.00;99938.19;5066512;28;20295;-71
2021/08/08 01:47:27;;;;;;;14.93;3.17;;;;;;;13.51;100.00;99948.47;5065992;28;20623;-71
2021/08/08 01:49:56;;;;;;;16.02;3.00;;;;;;;13.60;100.00;99949.97;5064431;28;20394;-71
2021/08/08 01:52:23;;;;;;;12.73;3.40;;;;;;;13.59;100.00;99951.81;5064838;28;20051;-71
2021/08/08 01:54:55;;;;;;;9.75;3.00;;;;;;;13.58;100.00;99952.00;5062464;28;20313;-72
2021/08/08 01:57:24;;;;;;;6.68;3.47;;;;;;;13.63;100.00;99948.72;5065493;28;20362;-72
2021/08/08 01:59:52;;;;;;;9.18;3.50;;;;;;;13.56;100.00;99948.72;5063495;28;20470;-71
2021/08/08 02:02:20;;;;;;;13.70;3.17;;;;;;;13.56;100.00;99951.38;5065385;28;20098;-72
2021/08/08 02:04:50;;;;;;;12.68;3.20;;;;;;;13.59;100.00;99959.88;5067621;28;20049;-70
2021/08/08 02:07:22;;;;;;;12.75;3.58;;;;;;;13.63;100.00;99954.09;5064546;28;20137;-71
2021/08/08 02:09:50;;;;;;;8.43;4.03;;;;;;;13.65;100.00;99960.91;5064247;28;20062;-71
2021/08/08 02:12:29;;;;;;;10.95;3.25;;;;;;;13.66;100.00;99957.19;5064593;28;20036;-71
2021/08/08 02:14:56;;;;;;;15.68;3.42;;;;;;;13.75;100.00;99950.59;5064953;28;20049;-72
2021/08/08 02:17:24;;;;;;;11.80;3.40;;;;;;;13.74;100.00;99957.00;5066512;28;20448;-71
2021/08/08 02:19:59;;;;;;;10.10;4.20;;;;;;;13.75;100.00;99961.34;5063650;28;20317;-71
2021/08/08 02:22:35;;;;;;;10.67;3.33;;;;;;;13.70;100.00;99957.59;5065513;28;20056;-72
2021/08/08 02:25:04;;;;;;;8.80;3.50;;;;;;;13.72;100.00;99960.91;5065353;28;20102;-71
2021/08/08 02:27:38;;;;;;;11.10;3.20;;;;;;;13.77;100.00;99953.88;5062934;28;20040;-71
2021/08/08 02:30:11;;;;;;;12.23;3.90;;;;;;;13.77;100.00;99956.56;5063237;28;20052;-71
2021/08/08 02:32:39;;;;;;;8.07;3.50;;;;;;;13.76;100.00;99965.69;5065629;28;20443;-71
2021/08/08 02:35:12;;;;;;;12.75;3.22;;;;;;;13.80;100.00;99962.56;5065276;28;20398;-70
2021/08/08 02:37:45;;;;;;;14.23;3.85;;;;;;;13.83;100.00;99962.16;5063211;28;20049;-70
2021/08/08 02:40:15;;;;;;;9.88;3.47;;;;;;;13.85;100.00;99965.44;5060688;28;20047;-71
2021/08/08 02:42:46;;;;;;;7.00;3.33;;;;;;;13.78;100.00;99968.97;5067214;28;20037;-70
2021/08/08 02:45:14;;;;;;;12.43;3.17;;;;;;;13.84;100.00;99969.19;5067107;28;20048;-70
2021/08/08 02:47:42;;;;;;;11.93;3.58;;;;;;;13.80;100.00;99967.94;5067923;28;20060;-71
2021/08/08 02:50:11;;;;;;;11.38;3.13;;;;;;;13.84;100.00;99966.50;5065267;28;20049;-70
2021/08/08 02:52:41;;;;;;;11.20;3.47;;;;;;;13.86;100.00;99973.28;5062886;28;20048;-70
2021/08/08 02:55:11;;;;;;;6.80;3.40;;;;;;;13.90;100.00;99966.50;5064130;28;20266;-71
2021/08/08 02:57:41;;;;;;;11.23;3.05;;;;;;;13.86;100.00;99972.47;5064926;28;20048;-70
2021/08/08 03:00:15;;;;;;;10.77;3.75;;;;;;;13.88;100.00;99970.44;5062852;28;20111;-71
2021/08/08 03:02:43;;;;;;;15.52;3.60;;;;;;;13.90;100.00;99971.84;5065693;28;20048;-70
2021/08/08 03:05:12;;;;;;;17.02;3.58;;;;;;;13.94;100.00;99985.69;5064590;28;20044;-71
2021/08/08 03:07:40;;;;;;;11.65;3.70;;;;;;;13.88;100.00;99989.22;5069652;28;20094;-70
2021/08/08 03:10:11;;;;;;;9.30;3.78;;;;;;;13.89;100.00;99993.53;5065398;28;20460;-71
2021/08/08 03:12:39;;;;;;;11.90;3.22;;;;;;;13.89;100.00;99980.13;5066099;28;20209;-71
2021/08/08 03:15:09;;;;;;;15.75;3.72;;;;;;;13.95;100.00;99987.38;5070968;28;20060;-71
2021/08/08 03:17:46;;;;;;;12.48;3.60;;;;;;;13.91;100.00;99999.53;5070531;28;20045;-70
2021/08/08 03:20:15;;;;;;;8.73;2.90;;;;;;;13.95;100.00;100001.59;5067961;28;20048;-71
2021/08/08 03:22:44;;;;;;;8.07;3.35;;;;;;;13.86;100.00;100005.50;5067428;28;20349;-71
2021/08/08 03:25:14;;;;;;;12.88;3.70;;;;;;;13.85;100.00;100000.34;5070435;28;20045;-71
2021/08/08 03:27:42;;;;;;;7.38;3.05;;;;;;;13.85;100.00;99997.66;5067270;28;20036;-71
2021/08/08 03:30:13;;;;;;;13.70;3.20;;;;;;;13.83;100.00;100002.41;5067124;28;20048;-71
2021/08/08 03:32:45;;;;;;;11.90;3.90;;;;;;;13.87;100.00;100000.97;5066792;28;20041;-70
2021/08/08 03:35:15;;;;;;;11.50;3.05;;;;;;;13.78;100.00;100003.84;5069686;28;20071;-70
2021/08/08 03:37:51;;;;;;;6.78;3.13;;;;;;;13.77;100.00;100012.09;5067342;28;20048;-70
2021/08/08 03:40:19;;;;;;;10.98;3.38;;;;;;;13.71;100.00;100013.75;5068630;28;20187;-72
2021/08/08 03:42:47;;;;;;;10.32;3.20;;;;;;;13.69;100.00;100015.78;5067406;28;20049;-70
2021/08/08 03:45:15;;;;;;;6.75;2.95;;;;;;;13.64;100.00;100018.28;5071161;28;20094;-71
2021/08/08 03:47:50;;;;;;;12.32;4.03;;;;;;;13.50;100.00;100032.69;5066508;28;20221;-70
2021/08/08 03:50:19;;;;;;;14.48;3.75;;;;;;;13.57;100.00;100028.97;5065655;28;20051;-70
2021/08/08 03:52:56;;;;;;;7.70;3.40;;;;;;;13.59;100.00;100031.44;5067143;28;20056;-71
2021/08/08 03:55:24;;;;;;;12.27;4.63;;;;;;;13.53;100.00;100038.44;5066696;28;20258;-70
2021/08/08 03:57:56;;;;;;;10.15;3.90;;;;;;;13.53;100.00;100041.13;5070596;28;20091;-70
2021/08/08 04:00:24;;;;;;;9.57;2.95;;;;;;;13.51;100.00;100034.31;5064180;28;20106;-71
2021/08/08 04:02:53;;;;;;;12.05;3.45;;;;;;;13.41;100.00;100045.41;5068105;28;20291;-71
2021/08/08 04:05:21;;;;;;;12.90;3.80;;;;;;;13.40;100.00;100049.97;5068905;28;20044;-71
2021/08/08 04:07:49;;;;;;;16.63;4.78;;;;;;;13.16;100.00;100047.78;5067079;28;20052;-71
2021/08/08 04:10:18;;;;;;;10.38;4.18;;;;;;;13.14;100.00;100061.38;5069012;28;20041;-71
2021/08/08 04:12:46;;;;;;;12.05;4.30;;;;;;;13.02;100.00;100058.41;5068176;28;20041;-70
2021/08/08 04:15:16;;;;;;;13.27;4.20;;;;;;;13.09;100.00;100063.81;5067663;28;20383;-70
2021/08/08 04:17:44;;;;;;;10.00;3.88;;;;;;;13.06;100.00;100057.00;5067045;28;20397;-70
2021/08/08 04:20:14;;;;;;;12.15;4.35;;;;;;;13.05;100.00;100071.41;5062495;28;20373;-70
2021/08/08 04:22:42;;;;;;;15.05;4.40;;;;;;;12.88;100.00;100062.03;5070504;28;20098;-70
2021/08/08 04:25:11;;;;;;;13.07;4.18;;;;;;;12.87;100.00;100065.72;5067333;28;20608;-70
2021/08/08 04:27:40;;;;;;;14.02;4.55;;;;;;;12.86;100.00;100069.47;5066954;28;20328;-70
2021/08/08 04:30:09;;;;;;;12.07;5.05;;;;;;;12.74;100.00;100071.84;5066102;28;20529;-70
2021/08/08 04:32:40;;;;;;;13.80;4.68;;;;;;;12.79;100.00;100057.88;5068462;28;20036;-70
2021/08/08 04:35:09;;;;;;;12.05;4.93;;;;;;;12.65;100.00;100068.47;5068886;28;20049;-70
2021/08/08 04:37:44;;;;;;;13.00;4.00;;;;;;;12.58;100.00;100072.97;5069658;28;20090;-70
2021/08/08 04:40:15;;;;;;;12.85;4.88;;;;;;;12.53;100.00;100086.09;5062200;28;20395;-70
2021/08/08 04:42:43;;;;;;;11.93;4.70;;;;;;;12.53;100.00;100094.97;5067837;28;20045;-70
2021/08/08 04:45:17;;;;;;;10.30;4.43;;;;;;;12.47;100.00;100095.72;5068037;28;20047;-70
2021/08/08 04:47:45;;;;;;;14.85;4.10;;;;;;;12.55;100.00;100095.59;5067945;28;20037;-70
2021/08/08 04:50:17;;;;;;;14.48;4.53;;;;;;;12.48;100.00;100088.53;5065594;28;20040;-70
2021/08/08 04:52:48;;;;;;;12.75;3.92;;;;;;;12.44;100.00;100087.28;5067947;28;20044;-69
2021/08/08 04:55:17;;;;;;;12.88;4.18;;;;;;;12.42;100.00;100084.78;5067943;28;20052;-70
2021/08/08 04:57:45;;;;;;;10.20;4.57;;;;;;;12.47;100.00;100085.03;5066569;28;20221;-70
2021/08/08 05:00:14;;;;;;;14.43;4.13;;;;;;;12.52;100.00;100097.84;5066085;28;20047;-70
2021/08/08 05:02:46;;;;;;;11.52;3.85;;;;;;;12.60;100.00;100103.03;5067906;28;20040;-70
2021/08/08 05:05:17;;;;;;;11.00;4.85;;;;;;;12.52;100.00;100106.72;5066405;28;20056;-70
2021/08/08 05:07:54;;;;;;;8.95;4.07;;;;;;;12.65;100.00;100108.66;5068128;28;20044;-70
2021/08/08 05:10:25;;;;;;;13.40;4.05;;;;;;;12.81;100.00;100106.72;5062131;28;20049;-70
2021/08/08 05:12:55;;;;;;;18.17;4.57;;;;;;;12.90;100.00;100110.91;5066676;28;20098;-70
2021/08/08 05:15:24;;;;;;;9.02;4.20;;;;;;;12.80;100.00;100113.09;5067010;28;20102;-70
2021/08/08 05:17:54;;;;;;;13.45;5.22;;;;;;;12.81;100.00;100106.72;5070288;28;20456;-70
2021/08/08 05:20:22;;;;;;;12.20;3.60;;;;;;;12.93;100.00;100118.56;5065298;28;20399;-70
2021/08/08 05:22:51;;;;;;;9.48;4.00;;;;;;;12.96;100.00;100117.34;5065784;28;20059;-70
2021/08/08 05:25:19;;;;;;;9.30;4.45;;;;;;;12.95;100.00;100118.38;5060781;28;20040;-70
2021/08/08 05:27:47;;;;;;;18.08;4.32;;;;;;;13.16;100.00;100117.47;5063578;28;20367;-70
2021/08/08 05:30:15;;;;;;;9.23;3.40;;;;;;;13.39;100.00;100117.22;5063418;28;20056;-70
2021/08/08 05:32:43;;;;;;;13.55;4.05;;;;;;;13.65;100.00;100105.78;5066448;28;20041;-70
2021/08/08 05:35:12;;;;;;;10.88;3.45;;;;;;;13.81;100.00;100107.28;5065252;28;20337;-70
2021/08/08 05:37:40;;;;;;;8.75;3.55;;;;;;;13.57;100.00;100101.41;5064673;28;20040;-70
2021/08/08 05:40:11;;;;;;;7.55;4.20;;;;;;;13.50;100.00;100124.69;5060860;28;20053;-70
2021/08/08 05:42:47;;;;;;;10.70;3.97;;;;;;;13.33;100.00;100115.31;5064517;28;20449;-70
2021/08/08 05:45:19;;;;;;;10.35;3.90;;;;;;;13.40;100.00;100118.88;5067973;28;20086;-70
2021/08/08 05:47:50;;;;;;;9.05;3.30;;;;;;;13.48;100.00;100123.22;5067004;28;20041;-70
2021/08/08 05:50:19;;;;;;;9.43;3.40;;;;;;;13.56;100.00;100117.69;5063438;28;20113;-70
2021/08/08 05:52:58;;;;;;;13.82;4.53;;;;;;;13.72;100.00;100121.88;5065704;28;20321;-70
2021/08/08 05:55:27;;;;;;;15.40;3.97;;;;;;;13.90;100.00;100113.28;5066260;28;20086;-70
2021/08/08 05:57:55;;;;;;;7.65;3.42;;;;;;;13.95;100.00;100124.25;5065988;28;20106;-70
2021/08/08 06:00:23;;;;;;;11.43;4.25;;;;;;;13.73;100.00;100124.38;5064193;28;20041;-70
2021/08/08 06:02:51;;;;;;;9.10;3.63;;;;;;;13.46;100.00;100123.44;5067552;28;20052;-70
2021/08/08 06:05:19;;;;;;;16.92;4.05;;;;;;;13.64;100.00;100130.94;5066445;28;20438;-70
2021/08/08 06:07:47;;;;;;;10.70;3.80;;;;;;;14.39;100.00;100128.25;5068986;28;20040;-70
2021/08/08 06:10:16;;;;;;;11.50;3.47;;;;;;;14.79;100.00;100132.84;5063922;28;20044;-70
2021/08/08 06:12:46;;;;;;;7.97;3.33;;;;;;;14.35;100.00;100121.63;5065636;28;20067;-71
2021/08/08 06:15:13;;;;;;;8.23;3.78;;;;;;;14.26;100.00;100138.97;5068751;28;20040;-70
2021/08/08 06:17:44;;;;;;;9.98;3.03;;;;;;;14.23;100.00;100134.00;5065420;28;20075;-71
2021/08/08 06:20:13;;;;;;;12.68;3.40;;;;;;;14.67;100.00;100129.94;5064112;28;20440;-70
2021/08/08 06:22:40;;;;;;;11.45;4.03;;;;;;;14.33;100.00;100128.25;5067346;28;20102;-71
2021/08/08 06:25:09;;;;;;;14.63;4.57;;;;;;;14.04;100.00;100143.69;5068231;28;20040;-70
2021/08/08 06:27:37;;;;;;;9.05;3.78;;;;;;;13.90;100.00;100148.19;5067808;28;20098;-70
2021/08/08 06:30:07;;;;;;;8.00;3.75;;;;;;;13.92;100.00;100154.16;5063638;28;20048;-70
2021/08/08 06:32:37;;;;;;;9.02;4.68;;;;;;;13.86;100.00;100150.41;5067007;28;20350;-71
2021/08/08 06:35:08;;;;;;;8.32;3.22;;;;;;;13.92;100.00;100156.84;5068360;28;20363;-71
2021/08/08 06:37:40;;;;;;;8.52;3.55;;;;;;;13.80;100.00;100155.78;5066630;28;20531;-71
2021/08/08 06:40:12;;;;;;;7.88;3.50;;;;;;;14.10;100.00;100146.41;5064358;28;20048;-70
2021/08/08 06:42:40;;;;;;;8.20;3.65;;;;;;;14.11;100.00;100169.50;5063317;28;20059;-70
2021/08/08 06:45:10;;;;;;;10.23;4.07;;;;;;;14.19;100.00;100155.09;5067428;28;20041;-71
2021/08/08 06:47:38;;;;;;;12.00;3.58;;;;;;;14.17;100.00;100159.00;5065283;28;20094;-70
2021/08/08 06:50:06;;;;;;;10.50;3.60;;;;;;;14.20;100.00;100164.78;5065520;28;20044;-71
2021/08/08 06:52:34;;;;;;;8.57;3.25;;;;;;;14.01;100.00;100158.31;5068144;28;20044;-70
2021/08/08 06:55:02;;;;;;;7.47;3.30;;;;;;;14.19;100.00;100168.50;5065998;28;20106;-71
2021/08/08 06:57:30;;;;;;;10.95;3.78;;;;;;;14.33;100.00;100177.44;5065152;28;20049;-71
2021/08/08 06:59:58;;;;;;;9.05;3.40;;;;;;;14.95;100.00;100163.84;5063900;28;20047;-71
2021/08/08 07:02:27;;;;;;;7.47;3.58;;;;;;;14.88;100.00;100171.09;5066157;28;20055;-71
2021/08/08 07:04:58;;;;;;;11.88;3.78;;;;;;;15.95;100.00;100165.50;5065052;28;20556;-68
2021/08/08 07:07:26;;;;;;;8.07;3.40;;;;;;;16.26;100.00;100147.69;5066636;28;20057;-69
2021/08/08 07:09:53;;;;;;;8.05;3.50;;;;;;;15.70;100.00;100154.59;5065004;28;20075;-71
2021/08/08 07:12:22;;;;;;;5.88;3.92;;;;;;;15.30;100.00;100159.03;5063331;28;20044;-72
2021/08/08 07:14:50;;;;;;;8.50;3.45;;;;;;;15.34;100.00;100154.06;5066879;28;20040;-71
2021/08/08 07:17:30;;;;;;;10.07;3.35;;;;;;;15.44;100.00;100169.78;5065946;28;20056;-72
2021/08/08 07:19:59;;;;;;;10.50;3.35;;;;;;;15.31;100.00;100173.34;5065620;28;20116;-72
2021/08/08 07:22:30;;;;;;;9.43;3.03;;;;;;;15.66;100.00;100164.94;5066391;28;20445;-72
2021/08/08 07:24:58;;;;;;;7.78;3.30;;;;;;;15.38;100.00;100173.31;5064629;28;20049;-72
2021/08/08 07:27:26;;;;;;;6.20;3.10;;;;;;;15.23;100.00;100170.84;5066107;28;20110;-72
2021/08/08 07:29:55;;;;;;;7.35;3.40;;;;;;;15.71;100.00;100175.09;5061673;28;20048;-71
2021/08/08 07:32:23;;;;;;;9.10;3.40;;;;;;;16.56;100.00;100168.63;5064783;28;20063;-70
2021/08/08 07:34:51;;;;;;;7.03;3.25;;;;;;;16.09;100.00;100175.16;5064765;28;20048;-70
2021/08/08 07:37:21;;;;;;;7.70;3.35;;;;;;;16.46;100.00;100174.53;5065717;28;20432;-70
2021/08/08 07:39:49;;;;;;;9.73;3.50;;;;;;;15.36;100.00;100170.81;5063371;28;20163;-71
2021/08/08 07:42:17;;;;;;;6.78;3.00;;;;;;;16.47;100.00;100179.69;5063410;28;20040;-70
2021/08/08 07:44:50;;;;;;;11.73;3.85;;;;;;;16.63;100.00;100174.81;5064968;28;20040;-70
2021/08/08 07:47:18;;;;;;;11.10;3.45;;;;;;;16.50;100.00;100176.56;5065004;28;20479;-71
2021/08/08 07:49:45;;;;;;;12.88;4.38;;;;;;;17.09;100.00;100184.41;5064267;28;20059;-70
2021/08/08 07:52:13;;;;;;;8.57;3.25;;;;;;;17.21;100.00;100168.34;5067592;28;20051;-69
2021/08/08 07:54:43;;;;;;;5.78;3.03;;;;;;;16.70;100.00;100171.03;5068674;28;20048;-72
2021/08/08 07:57:11;;;;;;;6.30;3.60;;;;;;;16.46;100.00;100186.13;5069555;28;20040;-70
2021/08/08 07:59:39;;;;;;;7.10;3.10;;;;;;;17.01;100.00;100179.28;5065130;28;20052;-70
2021/08/08 08:02:07;;;;;;;4.82;3.17;;;;;;;16.95;100.00;100186.41;5070570;28;20336;-70
2021/08/08 08:04:39;;;;;;;4.55;3.10;;;;;;;17.08;100.00;100179.25;5069152;28;20044;-70
2021/08/08 08:07:07;;;;;;;5.30;3.20;;;;;;;17.85;100.00;100173.44;5069960;28;20047;-69
2021/08/08 08:09:35;;;;;;;8.88;3.53;;;;;;;18.39;100.00;100176.28;5065649;28;20141;-69
2021/08/08 08:12:05;;;;;;;7.93;2.78;;;;;;;16.92;100.00;100173.34;5066779;28;20333;-70
2021/08/08 08:14:33;;;;;;;10.88;3.17;;;;;;;16.88;100.00;100180.25;5068086;28;20047;-70
2021/08/08 08:17:01;;;;;;;9.32;3.58;;;;;;;18.14;100.00;100190.75;5064142;28;20340;-70
2021/08/08 08:19:29;;;;;;;8.77;3.20;;;;;;;18.00;100.00;100189.28;5060346;28;20309;-70
2021/08/08 08:21:57;;;;;;;7.43;2.42;;;;;;;16.96;100.00;100190.75;5064199;28;20045;-69
2021/08/08 08:24:25;;;;;;;13.20;2.80;;;;;;;17.02;100.00;100191.75;5062568;28;20645;-70
2021/08/08 08:26:53;;;;;;;8.82;3.13;;;;;;;17.27;100.00;100190.91;5069000;28;20032;-69
2021/08/08 08:29:22;;;;;;;6.53;3.20;;;;;;;17.34;100.00;100191.66;5063241;28;20114;-69
2021/08/08 08:31:50;;;;;;;9.38;2.60;;;;;;;16.97;100.00;100203.19;5068095;28;20052;-69
2021/08/08 08:34:18;;;;;;;9.60;3.13;;;;;;;17.55;100.00;100199.31;5064583;28;20049;-70
2021/08/08 08:36:46;;;;;;;3.20;2.90;;;;;;;17.36;100.00;100208.44;5065445;28;20362;-69
2021/08/08 08:39:14;;;;;;;7.90;3.33;;;;;;;17.24;100.00;100219.16;5066390;28;20049;-69
2021/08/08 08:41:42;;;;;;;8.45;3.42;;;;;;;17.55;100.00;100215.53;5064748;28;20507;-69
2021/08/08 08:44:18;;;;;;;6.32;3.20;;;;;;;16.73;100.00;100212.06;5067826;28;20052;-70
2021/08/08 08:46:48;;;;;;;9.60;3.05;;;;;;;16.77;100.00;100215.97;5064810;28;20044;-69
2021/08/08 08:49:20;;;;;;;6.72;2.70;;;;;;;17.76;100.00;100213.41;5064835;28;20155;-69
2021/08/08 08:51:56;;;;;;;9.15;3.22;;;;;;;18.53;100.00;100203.94;5069547;28;20049;-69
2021/08/08 08:54:24;;;;;;;4.88;2.67;;;;;;;18.88;100.00;100201.34;5066791;28;20500;-70
2021/08/08 08:56:55;;;;;;;5.18;2.75;;;;;;;19.19;100.00;100207.47;5066963;28;20033;-70
2021/08/08 08:59:23;;;;;;;6.80;2.72;;;;;;;20.47;100.00;100200.38;5064457;28;20101;-70
2021/08/08 09:01:52;;;;;;;7.28;2.40;;;;;;;17.84;100.00;100215.81;5067606;28;20040;-69
2021/08/08 09:04:20;;;;;;;7.97;3.20;;;;;;;18.03;100.00;100210.44;5068614;28;20067;-69
2021/08/08 09:06:48;;;;;;;4.35;2.40;;;;;;;18.77;100.00;100212.94;5068414;28;20089;-70
2021/08/08 09:09:16;;;;;;;5.60;2.28;;;;;;;18.72;100.00;100219.03;5063815;28;20053;-71
2021/08/08 09:11:47;;;;;;;3.63;2.45;;;;;;;18.04;100.00;100220.19;5065090;28;20421;-71
2021/08/08 09:14:16;;;;;;;4.45;2.60;;;;;;;19.29;100.00;100217.72;5064171;28;20086;-71
2021/08/08 09:16:45;;;;;;;3.58;2.33;;;;;;;18.84;100.00;100221.78;5068202;28;20043;-70
2021/08/08 09:19:22;;;;;;;7.50;2.72;;;;;;;18.42;100.00;100233.41;5063382;28;20051;-71
2021/08/08 09:21:50;;;;;;;6.88;2.20;;;;;;;17.90;100.00;100233.00;5068892;28;20044;-70
2021/08/08 09:24:26;;;;;;;5.13;2.35;;;;;;;17.79;100.00;100245.38;5066511;28;20063;-70
2021/08/08 09:27:02;;;;;;;5.22;3.15;;;;;;;20.36;100.00;100237.31;5067445;28;20028;-70
2021/08/08 09:29:30;;;;;;;7.00;2.80;;;;;;;20.40;100.00;100215.94;5064158;28;20440;-71
2021/08/08 09:31:59;;;;;;;6.90;2.47;;;;;;;20.59;100.00;100222.00;5066944;28;20063;-72
2021/08/08 09:34:30;;;;;;;7.28;2.38;;;;;;;18.72;100.00;100242.56;5067151;28;20072;-71
2021/08/08 09:37:01;;;;;;;6.80;2.42;;;;;;;18.22;100.00;100254.47;5067277;28;20093;-70
2021/08/08 09:39:31;;;;;;;4.72;2.00;;;;;;;18.81;100.00;100260.09;5064710;28;20049;-69
2021/08/08 09:42:10;;;;;;;8.40;2.17;;;;;;;17.11;100.00;100257.88;5067683;28;20040;-69
2021/08/08 09:44:39;;;;;;;7.00;2.90;;;;;;;17.95;100.00;100259.38;5066229;28;20044;-71
2021/08/08 09:47:07;;;;;;;6.80;2.83;;;;;;;19.69;100.00;100252.19;5069224;28;20382;-69
2021/08/08 09:49:36;;;;;;;7.43;2.65;;;;;;;18.43;100.00;100253.16;5063765;28;20044;-69
2021/08/08 09:52:05;;;;;;;2.83;2.10;;;;;;;18.49;100.00;100249.53;5064547;28;20052;-69
2021/08/08 09:54:38;;;;;;;4.72;2.33;;;;;;;18.20;100.00;100254.69;5065131;28;20105;-69
2021/08/08 09:57:07;;;;;;;3.23;2.43;;;;;;;18.10;100.00;100265.19;5064430;28;20058;-68
2021/08/08 09:59:46;;;;;;;5.15;2.20;;;;;;;17.93;100.00;100269.56;5061282;28;20037;-69
2021/08/08 10:02:19;;;;;;;4.05;2.13;;;;;;;18.63;100.00;100262.84;5067906;28;20056;-67
2021/08/08 10:04:49;;;;;;;6.50;2.55;;;;;;;19.08;100.00;100251.59;5066193;28;20040;-69
2021/08/08 10:07:19;;;;;;;3.67;2.35;;;;;;;18.67;100.00;100259.47;5065398;28;20068;-68
2021/08/08 10:09:51;;;;;;;5.40;2.38;;;;;;;19.19;100.00;100256.19;5063792;28;20072;-69
2021/08/08 10:12:44;;;;;;;4.90;2.08;;;;;;;21.21;100.00;100251.03;5064422;28;20106;-71
2021/08/08 10:15:14;;;;;;;4.72;2.55;;;;;;;20.47;100.00;100244.59;5067906;28;20110;-72
2021/08/08 10:17:46;;;;;;;5.68;1.92;;;;;;;20.08;100.00;100238.94;5065167;28;20354;-72
2021/08/08 10:20:16;;;;;;;3.70;2.28;;;;;;;19.05;100.00;100235.81;5066630;28;20497;-73
2021/08/08 10:22:47;;;;;;;9.45;2.80;;;;;;;18.54;100.00;100259.66;5068193;28;20040;-67
2021/08/08 10:25:20;;;;;;;5.80;2.10;;;;;;;18.73;100.00;100257.72;5069364;28;20093;-69
2021/08/08 10:27:48;;;;;;;5.18;2.58;;;;;;;18.51;100.00;100269.03;5065811;28;20094;-69
2021/08/08 10:30:17;;;;;;;6.10;2.45;;;;;;;19.02;100.00;100263.34;5064708;28;20194;-71
2021/08/08 10:32:47;;;;;;;4.15;3.08;;;;;;;20.15;100.00;100238.00;5065761;28;20040;-74
2021/08/08 10:35:20;;;;;;;4.97;2.45;;;;;;;19.52;100.00;100267.50;5069190;28;20139;-72
2021/08/08 10:37:48;;;;;;;6.55;2.28;;;;;;;18.57;100.00;100259.19;5067204;28;20325;-72
2021/08/08 10:40:31;;;;;;;5.50;2.30;;;;;;;19.70;100.00;100258.44;5066552;28;20139;-72
2021/08/08 10:43:00;;;;;;;6.32;2.40;;;;;;;20.52;100.00;100245.75;5067695;28;20428;-73
2021/08/08 10:45:29;;;;;;;5.90;2.38;;;;;;;19.83;100.00;100250.06;5068335;28;20295;-72
2021/08/08 10:47:59;;;;;;;8.38;2.60;;;;;;;18.55;100.00;100262.13;5066125;28;20039;-70
2021/08/08 10:50:40;;;;;;;6.50;2.75;;;;;;;17.98;100.00;100283.22;5062701;28;20451;-70
2021/08/08 10:53:21;;;;;;;5.68;3.15;;;;;;;18.16;100.00;100285.94;5067774;28;20044;-69
2021/08/08 10:55:50;;;;;;;4.85;2.08;;;;;;;18.36;100.00;100280.28;5065789;28;20041;-69
2021/08/08 10:58:21;;;;;;;3.22;2.42;;;;;;;18.55;100.00;100277.53;5065697;28;20440;-69
2021/08/08 11:00:48;;;;;;;4.47;1.95;;;;;;;17.87;100.00;100284.75;5064040;28;20052;-69
2021/08/08 11:03:18;;;;;;;6.35;2.63;;;;;;;18.28;100.00;100282.47;5067055;28;20036;-68
2021/08/08 11:05:50;;;;;;;3.80;2.45;;;;;;;18.91;100.00;100281.19;5066531;28;20496;-69
2021/08/08 11:08:23;;;;;;;8.15;3.38;;;;;;;21.07;100.00;100285.00;5061241;28;20049;-72
2021/08/08 11:10:51;;;;;;;5.88;2.75;;;;;;;19.29;100.00;100287.28;5058113;28;20094;-69
2021/08/08 11:13:21;;;;;;;6.85;2.58;;;;;;;20.02;100.00;100298.72;5065311;28;20048;-70
2021/08/08 11:15:53;;;;;;;6.00;2.55;;;;;;;21.25;100.00;100286.63;5066019;28;20098;-72
2021/08/08 11:18:30;;;;;;;7.22;2.33;;;;;;;21.41;100.00;100290.44;5065484;28;20411;-72
2021/08/08 11:20:59;;;;;;;4.68;2.35;;;;;;;21.61;100.00;100289.94;5064950;28;20379;-73
2021/08/08 11:23:29;;;;;;;5.85;2.40;;;;;;;21.76;100.00;100292.03;5063662;28;20094;-72
2021/08/08 11:26:00;;;;;;;4.25;2.47;;;;;;;22.22;100.00;100289.94;5062594;28;20227;-73
2021/08/08 11:28:29;;;;;;;3.78;2.45;;;;;;;23.14;100.00;100284.66;5062797;28;20554;-71